Zephyrhills, FL

12:57 AM EST on February 07, 2016 (GMT -0500)
Zephyrhills Municipal | | Change Station
CLOSE
Current Station
Airport
Location: Zephyrhills,
Elevation: 89 ft
Nearby Weather Stations

Elev 89 ft 28.23 °N, 82.16 °W | Updated 2 minutes ago

Overcast
Overcast
46 °F
Feels Like 40 °F
N
13
Wind Variable Wind from WNW
Gusts 18 mph

Today
High -- | Low -- °F
--% Chance of Precip.
Yesterday
High -- | Low -- °F
Precip. -- in
Pressure 30.07 in
Visibility 10.0 miles
Clouds Overcast 500 ft
Windchill 40 °F
Dew Point 44 °F
Humidity 95%
Rainfall 0.00 in
Snow Depth Not available.
7:12 AM 6:13 PM
Waning Crescent, 2% visible
METAR KZPH 070555Z AUTO 30011G16KT 10SM OVC005 08/07 A3007 RMK AO2 60002 T00750068 10101 20075 401550065
Pressure 30.07 in
Visibility 10.0 miles
Clouds Overcast 500 ft
Windchill 40 °F
Dew Point 44 °F
Humidity 95%
Rainfall 0.00 in
Snow Depth Not available.
7:12 AM 6:13 PM
Waning Crescent, 2% visible
METAR KZPH 070555Z AUTO 30011G16KT 10SM OVC005 08/07 A3007 RMK AO2 60002 T00750068 10101 20075 401550065

10-Day Weather Forecast

Almanac

Astronomy

Feb. 07, 2016 Rise Set
Actual Time
Civil Twilight
Nautical Twilight
Astronomical Twilight
Moon
Length of Visible Light
Length of Day
Tomorrow will be .
, % of the Moon is Illuminated

Today's Extremes

State Highs State Lows

Community

WunderPhotos

Upload Photos

1,891,167 photos uploaded!

WunderBlog® & News

Nearby

Air Quality

  Air Quality AQ Index Pollutant
Not available.

Snow Depth

Station Depth Elevation

Earthquake Activity

City Distance Mag. Time & Date
Minimum magnitude displayed is 2.5.

Coastal Water Temperatures

Place Temperature

Stations

Nearby Weather Stations

Station Location Temp. Windchill Dew Point Humidity Wind Precip. Elev Updated Type
                   

Watches & Warnings

There are currently no watches in effect.